createdAt,value
2022-07-29T00:00:02.327Z,60.56
2022-07-29T00:02:29.766Z,60.14
2022-07-29T00:04:56.461Z,60.41
2022-07-29T00:07:23.206Z,60.81
2022-07-29T00:09:51.753Z,60.49
2022-07-29T00:12:21.449Z,60.25
2022-07-29T00:14:53.564Z,60.43
2022-07-29T00:17:20.317Z,60.63
2022-07-29T00:19:47.081Z,60.90
2022-07-29T00:22:13.840Z,61.14
2022-07-29T00:24:40.599Z,61.47
2022-07-29T00:27:07.709Z,61.42
2022-07-29T00:29:35.084Z,61.23
2022-07-29T00:32:03.196Z,60.97
2022-07-29T00:34:49.587Z,61.21
2022-07-29T00:37:16.580Z,61.04
2022-07-29T00:39:43.459Z,61.71
2022-07-29T00:42:10.886Z,61.79
2022-07-29T00:44:39.385Z,61.48
2022-07-29T00:47:07.432Z,62.10
2022-07-29T00:49:35.420Z,61.88
2022-07-29T00:52:06.375Z,61.89
2022-07-29T00:54:35.067Z,62.60
2022-07-29T00:57:02.771Z,61.87
2022-07-29T00:59:34.386Z,62.08
2022-07-29T01:02:03.348Z,61.92
2022-07-29T01:04:30.907Z,62.65
2022-07-29T01:06:58.095Z,62.09
2022-07-29T01:09:42.086Z,62.14
2022-07-29T01:12:20.152Z,62.10
2022-07-29T01:14:48.899Z,62.15
2022-07-29T01:17:24.374Z,62.31
2022-07-29T01:20:02.517Z,61.76
2022-07-29T01:23:01.446Z,61.87
2022-07-29T01:25:35.875Z,62.42
2022-07-29T01:28:24.736Z,62.18
2022-07-29T01:30:55.795Z,62.31
2022-07-29T01:33:44.871Z,62.09
2022-07-29T01:36:15.826Z,62.39
2022-07-29T01:38:46.549Z,63.07
2022-07-29T01:41:18.832Z,63.27
2022-07-29T01:44:08.985Z,62.77
2022-07-29T01:46:40.381Z,63.11
2022-07-29T01:49:15.355Z,62.57
2022-07-29T01:51:51.354Z,62.53
2022-07-29T01:54:31.795Z,62.95
2022-07-29T01:57:01.416Z,62.69
2022-07-29T01:59:29.985Z,62.49
2022-07-29T02:02:00.290Z,62.03
2022-07-29T02:04:30.417Z,62.88
2022-07-29T02:07:02.858Z,62.70
2022-07-29T02:09:31.656Z,62.17
2022-07-29T02:12:00.691Z,62.28
2022-07-29T02:14:32.258Z,62.28
2022-07-29T02:17:01.665Z,62.76
2022-07-29T02:19:30.560Z,62.56
2022-07-29T02:21:59.842Z,62.29
2022-07-29T02:24:27.678Z,62.33
2022-07-29T02:26:57.573Z,62.08
2022-07-29T02:29:27.324Z,62.50
2022-07-29T02:31:56.481Z,62.39
2022-07-29T02:34:24.560Z,63.23
2022-07-29T02:36:52.749Z,62.58
2022-07-29T02:39:20.592Z,62.47
2022-07-29T02:41:53.947Z,62.75
2022-07-29T02:44:23.108Z,62.79
2022-07-29T02:47:25.152Z,62.56
2022-07-29T02:49:56.832Z,62.67
2022-07-29T02:52:38.946Z,63.19
2022-07-29T02:55:16.868Z,62.70
2022-07-29T02:57:55.987Z,62.64
2022-07-29T03:00:28.033Z,62.04
2022-07-29T03:02:57.660Z,62.74
2022-07-29T03:05:25.620Z,63.04
2022-07-29T03:08:05.105Z,63.72
2022-07-29T03:10:32.936Z,62.87
2022-07-29T03:13:01.253Z,63.99
2022-07-29T03:15:28.624Z,64.01
2022-07-29T03:17:56.745Z,63.69
2022-07-29T03:20:23.685Z,63.58
2022-07-29T03:22:51.047Z,64.30
2022-07-29T03:25:19.974Z,63.58
2022-07-29T03:27:47.804Z,63.82
2022-07-29T03:30:18.299Z,63.27
2022-07-29T03:32:48.881Z,64.42
2022-07-29T03:35:17.576Z,63.63
2022-07-29T03:37:45.294Z,64.09
2022-07-29T03:40:18.428Z,64.17
2022-07-29T03:42:46.964Z,64.27
2022-07-29T03:45:18.636Z,64.08
2022-07-29T03:47:55.803Z,64.57
2022-07-29T03:50:26.428Z,64.19
2022-07-29T03:52:53.552Z,64.60
2022-07-29T03:55:20.548Z,66.05
2022-07-29T03:57:49.106Z,64.98
2022-07-29T04:00:18.884Z,64.80
2022-07-29T04:02:50.087Z,64.26
2022-07-29T04:05:18.189Z,65.21
2022-07-29T04:07:46.580Z,65.15
2022-07-29T04:10:13.579Z,64.59
2022-07-29T04:12:40.338Z,65.06
2022-07-29T04:15:07.706Z,65.02
2022-07-29T04:17:34.572Z,64.88
2022-07-29T04:20:01.240Z,65.12
2022-07-29T04:22:27.969Z,64.93
2022-07-29T04:24:54.642Z,64.69
2022-07-29T04:27:21.609Z,64.95
2022-07-29T04:29:56.624Z,64.72
2022-07-29T04:32:24.982Z,65.00
2022-07-29T04:34:52.085Z,65.01
2022-07-29T04:37:18.843Z,64.84
2022-07-29T04:39:45.486Z,64.79
2022-07-29T04:42:12.241Z,65.14
2022-07-29T04:44:43.044Z,65.79
2022-07-29T04:47:10.203Z,66.61
2022-07-29T04:49:39.596Z,65.71
2022-07-29T04:52:07.076Z,65.37
2022-07-29T04:54:34.206Z,65.33
2022-07-29T04:57:00.956Z,65.07
2022-07-29T04:59:28.192Z,65.14
2022-07-29T05:01:55.175Z,65.11
2022-07-29T05:04:22.089Z,65.74
2022-07-29T05:06:49.310Z,65.63
2022-07-29T05:09:16.078Z,65.04
2022-07-29T05:11:42.965Z,64.95
2022-07-29T05:14:09.702Z,65.47
2022-07-29T05:16:36.355Z,65.18
2022-07-29T05:19:03.105Z,65.90
2022-07-29T05:21:29.763Z,65.65
2022-07-29T05:23:56.390Z,65.94
2022-07-29T05:26:23.262Z,65.97
2022-07-29T05:28:50.135Z,65.20
2022-07-29T05:31:16.954Z,65.67
2022-07-29T05:33:43.774Z,65.54
2022-07-29T05:36:10.534Z,65.76
2022-07-29T05:38:37.512Z,65.60
2022-07-29T05:41:05.486Z,64.76
2022-07-29T05:43:32.853Z,66.09
2022-07-29T05:45:59.663Z,65.15
2022-07-29T05:48:26.535Z,65.87
2022-07-29T05:50:53.362Z,65.37
2022-07-29T05:53:20.803Z,64.99
2022-07-29T05:55:49.198Z,64.77
2022-07-29T05:58:16.161Z,65.36
2022-07-29T06:00:43.161Z,64.97
2022-07-29T06:03:09.943Z,64.37
2022-07-29T06:05:36.918Z,64.14
2022-07-29T06:08:04.044Z,61.11
2022-07-29T06:10:30.697Z,59.19
2022-07-29T06:12:57.552Z,59.82
2022-07-29T06:15:24.313Z,60.43
2022-07-29T06:17:59.274Z,61.30
2022-07-29T06:20:32.518Z,60.89
2022-07-29T06:23:00.210Z,61.22
2022-07-29T06:25:30.224Z,61.70
2022-07-29T06:27:57.436Z,61.27
2022-07-29T06:30:24.224Z,61.89
2022-07-29T06:32:50.937Z,61.41
2022-07-29T06:35:41.090Z,62.32
2022-07-29T06:38:06.355Z,62.72
2022-07-29T06:41:07.202Z,62.59
2022-07-29T06:43:50.546Z,62.98
2022-07-29T06:46:20.937Z,62.66
2022-07-29T06:48:48.771Z,61.46
2022-07-29T06:51:17.340Z,61.69
2022-07-29T06:54:00.071Z,61.31
2022-07-29T06:56:31.701Z,60.28
2022-07-29T06:58:58.844Z,59.57
2022-07-29T07:01:25.810Z,59.30
2022-07-29T07:03:52.718Z,59.77
2022-07-29T07:06:19.480Z,59.25
2022-07-29T07:08:46.150Z,58.78
2022-07-29T07:11:13.004Z,59.87
2022-07-29T07:13:39.639Z,59.72
2022-07-29T07:16:06.632Z,57.65
2022-07-29T07:18:33.392Z,57.16
2022-07-29T07:21:00.148Z,56.16
2022-07-29T07:23:26.918Z,57.71
2022-07-29T07:25:53.786Z,57.29
2022-07-29T07:28:24.498Z,56.54
2022-07-29T07:30:52.694Z,56.63
2022-07-29T07:33:19.817Z,55.78
2022-07-29T07:35:46.580Z,54.85
2022-07-29T07:38:13.342Z,55.10
2022-07-29T07:40:40.099Z,54.28
2022-07-29T07:43:06.990Z,54.22
2022-07-29T07:45:34.219Z,53.27
2022-07-29T07:48:01.218Z,53.05
2022-07-29T07:50:27.970Z,54.58
2022-07-29T07:52:58.725Z,52.90
2022-07-29T07:55:26.899Z,51.20
2022-07-29T07:57:54.245Z,52.34
2022-07-29T08:00:22.978Z,52.48
2022-07-29T08:02:51.531Z,50.20
2022-07-29T08:05:19.262Z,51.85
2022-07-29T08:07:49.079Z,52.30
2022-07-29T08:10:37.944Z,53.51
2022-07-29T08:13:05.756Z,53.84
2022-07-29T08:15:32.514Z,54.56
2022-07-29T08:17:59.271Z,55.28
2022-07-29T08:20:26.513Z,53.96
2022-07-29T08:22:54.599Z,55.49
2022-07-29T08:25:21.724Z,55.37
2022-07-29T08:27:49.008Z,55.16
2022-07-29T08:30:16.184Z,54.23
2022-07-29T08:32:53.872Z,52.71
2022-07-29T08:35:25.544Z,51.05
2022-07-29T08:37:53.259Z,50.65
2022-07-29T08:40:32.013Z,51.81
2022-07-29T08:42:59.765Z,51.59
2022-07-29T08:45:27.660Z,50.21
2022-07-29T08:47:54.571Z,51.23
2022-07-29T08:50:21.347Z,52.82
2022-07-29T08:52:50.515Z,52.97
2022-07-29T08:55:21.526Z,50.99
2022-07-29T08:57:54.182Z,51.30
2022-07-29T09:00:23.728Z,50.99
2022-07-29T09:02:57.086Z,49.46
2022-07-29T09:05:25.883Z,49.42
2022-07-29T09:07:53.256Z,47.24
2022-07-29T09:10:20.120Z,48.15
2022-07-29T09:12:47.244Z,48.83
2022-07-29T09:15:13.999Z,51.62
2022-07-29T09:17:50.739Z,50.36
2022-07-29T09:20:23.358Z,48.83
2022-07-29T09:22:51.802Z,49.06
2022-07-29T09:25:37.999Z,47.56
2022-07-29T09:28:13.029Z,47.38
2022-07-29T09:30:55.158Z,49.45
2022-07-29T09:33:23.829Z,48.26
2022-07-29T09:36:04.056Z,47.77
2022-07-29T09:38:31.047Z,48.28
2022-07-29T09:41:05.783Z,45.54
2022-07-29T09:43:33.181Z,47.65
2022-07-29T09:46:15.201Z,46.66
2022-07-29T09:48:42.153Z,43.99
2022-07-29T09:51:24.227Z,43.79
2022-07-29T09:53:53.745Z,48.09
2022-07-29T09:56:20.575Z,47.24
2022-07-29T09:58:47.335Z,46.48
2022-07-29T10:01:14.162Z,46.60
2022-07-29T10:03:54.061Z,49.60
2022-07-29T10:06:20.838Z,47.62
2022-07-29T10:08:48.043Z,46.19
2022-07-29T10:11:19.242Z,48.21
2022-07-29T10:13:48.526Z,46.66
2022-07-29T10:16:17.542Z,46.97
2022-07-29T10:18:45.406Z,48.44
2022-07-29T10:21:22.442Z,46.96
2022-07-29T10:24:01.488Z,47.71
2022-07-29T10:26:29.556Z,46.20
2022-07-29T10:28:56.821Z,45.42
2022-07-29T10:31:58.747Z,47.32
2022-07-29T10:35:04.118Z,45.03
2022-07-29T10:37:58.225Z,45.47
2022-07-29T10:41:06.790Z,44.08
2022-07-29T10:43:39.268Z,45.10
2022-07-29T10:46:10.963Z,45.14
2022-07-29T10:49:15.402Z,44.35
2022-07-29T10:51:51.745Z,43.90
2022-07-29T10:54:19.219Z,40.94
2022-07-29T10:56:47.790Z,43.83
2022-07-29T10:59:21.571Z,43.98
2022-07-29T11:01:53.592Z,45.19
2022-07-29T11:04:47.041Z,43.70
2022-07-29T11:07:15.151Z,42.31
2022-07-29T11:09:42.243Z,42.06
2022-07-29T11:12:38.751Z,42.25
2022-07-29T11:15:18.121Z,43.13
2022-07-29T11:17:59.557Z,45.04
2022-07-29T11:20:33.118Z,42.95
2022-07-29T11:23:00.490Z,43.55
2022-07-29T11:25:42.405Z,43.68
2022-07-29T11:28:22.708Z,42.62
2022-07-29T11:30:51.596Z,41.65
2022-07-29T11:33:54.138Z,42.86
2022-07-29T11:36:19.201Z,41.97
2022-07-29T11:39:36.635Z,41.57
2022-07-29T11:42:32.273Z,41.28
2022-07-29T11:47:51.722Z,41.09
2022-07-29T11:50:32.260Z,39.05
2022-07-29T11:53:01.448Z,40.41
2022-07-29T11:55:38.615Z,39.10
2022-07-29T12:01:15.228Z,40.31
2022-07-29T12:03:43.722Z,39.71
2022-07-29T12:06:17.504Z,38.91
2022-07-29T12:07:02.364Z,40.63
2022-07-29T12:08:45.692Z,38.23
2022-07-29T12:11:22.815Z,39.56
2022-07-29T12:13:52.521Z,39.85
2022-07-29T12:16:26.049Z,41.10
2022-07-29T12:19:04.079Z,40.40
2022-07-29T12:21:53.645Z,38.97
2022-07-29T12:24:26.595Z,39.57
2022-07-29T12:27:00.695Z,39.51
2022-07-29T12:29:33.882Z,38.65
2022-07-29T12:32:04.647Z,38.61
2022-07-29T12:34:32.357Z,37.85
2022-07-29T12:36:59.236Z,36.77
2022-07-29T12:39:28.998Z,39.06
2022-07-29T12:42:04.562Z,37.45
2022-07-29T12:44:49.390Z,38.50
2022-07-29T12:47:17.172Z,38.11
2022-07-29T12:49:43.875Z,35.34
2022-07-29T12:52:26.706Z,36.85
2022-07-29T12:54:53.349Z,38.61
2022-07-29T12:57:20.511Z,37.71
2022-07-29T13:00:00.415Z,39.08
2022-07-29T13:02:27.600Z,37.96
2022-07-29T13:04:58.985Z,36.81
2022-07-29T13:07:55.916Z,38.28
2022-07-29T13:10:23.966Z,37.07
2022-07-29T13:13:04.729Z,38.38
2022-07-29T13:15:32.207Z,38.04
2022-07-29T13:17:59.086Z,38.16
2022-07-29T13:20:30.646Z,35.78
2022-07-29T13:22:59.448Z,36.24
2022-07-29T13:25:35.440Z,38.30
2022-07-29T13:28:02.083Z,37.95
2022-07-29T13:30:28.975Z,34.97
2022-07-29T13:32:56.201Z,35.53
2022-07-29T13:35:22.839Z,37.99
2022-07-29T13:37:49.598Z,37.12
2022-07-29T13:40:18.768Z,37.12
2022-07-29T13:42:45.636Z,39.59
2022-07-29T13:45:14.908Z,37.77
2022-07-29T13:47:46.004Z,36.46
2022-07-29T13:50:15.985Z,37.85
2022-07-29T13:52:42.745Z,38.47
2022-07-29T13:55:09.625Z,35.98
2022-07-29T13:57:36.650Z,37.42
2022-07-29T14:00:03.741Z,37.36
2022-07-29T14:02:30.406Z,39.30
2022-07-29T14:04:57.174Z,39.68
2022-07-29T14:07:24.380Z,36.37
2022-07-29T14:09:51.275Z,39.56
2022-07-29T14:12:18.494Z,38.66
2022-07-29T14:14:45.249Z,38.15
2022-07-29T14:17:14.207Z,38.70
2022-07-29T14:19:41.050Z,38.66
2022-07-29T14:22:09.003Z,37.55
2022-07-29T14:24:39.052Z,38.73
2022-07-29T14:27:07.151Z,39.35
2022-07-29T14:29:37.083Z,39.31
2022-07-29T14:32:06.292Z,39.25
2022-07-29T14:34:34.446Z,38.16
2022-07-29T14:37:01.195Z,36.94
2022-07-29T14:39:31.624Z,39.22
2022-07-29T14:41:59.625Z,39.99
2022-07-29T14:44:32.174Z,37.95
2022-07-29T14:47:07.875Z,38.55
2022-07-29T14:49:35.030Z,39.61
2022-07-29T14:52:01.911Z,40.38
2022-07-29T14:54:28.545Z,40.70
2022-07-29T14:56:58.184Z,40.81
2022-07-29T14:59:25.667Z,41.20
2022-07-29T15:01:52.506Z,39.27
2022-07-29T15:04:19.300Z,40.12
2022-07-29T15:06:45.937Z,38.87
2022-07-29T15:09:13.059Z,38.42
2022-07-29T15:11:39.813Z,38.19
2022-07-29T15:14:07.322Z,38.48
2022-07-29T15:16:37.248Z,38.39
2022-07-29T15:19:05.368Z,39.69
2022-07-29T15:21:32.146Z,41.41
2022-07-29T15:23:59.010Z,41.44
2022-07-29T15:26:26.853Z,40.07
2022-07-29T15:28:53.724Z,37.41
2022-07-29T15:31:20.520Z,37.25
2022-07-29T15:33:47.257Z,41.02
2022-07-29T15:36:35.753Z,38.14
2022-07-29T15:39:01.403Z,36.69
2022-07-29T15:41:28.162Z,39.74
2022-07-29T15:43:54.819Z,40.89
2022-07-29T15:46:40.271Z,38.84
2022-07-29T15:49:07.702Z,41.74
2022-07-29T15:51:34.630Z,40.04
2022-07-29T15:54:05.372Z,39.54
2022-07-29T15:56:32.477Z,40.10
2022-07-29T15:58:59.345Z,41.74
2022-07-29T16:01:28.193Z,39.43
2022-07-29T16:03:55.179Z,39.45
2022-07-29T16:06:22.261Z,39.95
2022-07-29T16:08:49.047Z,40.87
2022-07-29T16:11:16.143Z,40.56
2022-07-29T16:13:42.779Z,40.97
2022-07-29T16:16:09.594Z,40.46
2022-07-29T16:18:36.303Z,39.18
2022-07-29T16:21:03.291Z,38.73
2022-07-29T16:23:30.066Z,39.58
2022-07-29T16:26:00.161Z,40.72
2022-07-29T16:28:27.892Z,40.70
2022-07-29T16:30:54.653Z,40.88
2022-07-29T16:33:21.405Z,40.19
2022-07-29T16:35:48.067Z,39.54
2022-07-29T16:38:14.928Z,39.94
2022-07-29T16:40:42.180Z,41.00
2022-07-29T16:43:09.175Z,40.99
2022-07-29T16:45:43.915Z,40.42
2022-07-29T16:48:13.959Z,40.25
2022-07-29T16:50:41.551Z,40.21
2022-07-29T16:53:10.955Z,39.98
2022-07-29T16:55:38.432Z,41.31
2022-07-29T16:58:09.277Z,41.31
2022-07-29T17:00:36.064Z,41.60
2022-07-29T17:03:02.669Z,40.90
2022-07-29T17:05:29.574Z,41.78
2022-07-29T17:08:16.585Z,40.43
2022-07-29T17:10:43.342Z,42.91
2022-07-29T17:13:10.100Z,43.62
2022-07-29T17:15:36.888Z,43.37
2022-07-29T17:18:12.829Z,43.14
2022-07-29T17:20:41.777Z,42.84
2022-07-29T17:23:08.532Z,41.67
2022-07-29T17:25:35.293Z,43.57
2022-07-29T17:28:02.061Z,43.07
2022-07-29T17:30:29.787Z,44.50
2022-07-29T17:32:56.768Z,42.99
2022-07-29T17:35:41.888Z,43.80
2022-07-29T17:38:08.646Z,43.26
2022-07-29T17:40:35.283Z,43.56
2022-07-29T17:43:02.044Z,43.23
2022-07-29T17:45:49.103Z,44.86
2022-07-29T17:48:15.481Z,44.48
2022-07-29T17:50:42.261Z,45.44
2022-07-29T17:53:09.584Z,46.23
2022-07-29T17:55:45.114Z,45.79
2022-07-29T17:58:12.024Z,45.85
2022-07-29T18:00:39.403Z,44.81
2022-07-29T18:03:06.318Z,45.67
2022-07-29T18:05:33.587Z,46.63
2022-07-29T18:08:00.230Z,45.50
2022-07-29T18:10:27.224Z,46.51
2022-07-29T18:12:54.222Z,46.69
2022-07-29T18:15:20.983Z,45.90
2022-07-29T18:17:56.712Z,46.02
2022-07-29T18:20:25.788Z,45.62
2022-07-29T18:22:52.659Z,46.60
2022-07-29T18:25:19.537Z,46.99
2022-07-29T18:27:46.306Z,48.00
2022-07-29T18:30:15.050Z,47.74
2022-07-29T18:32:54.369Z,48.78
2022-07-29T18:35:29.014Z,48.38
2022-07-29T18:38:00.323Z,48.50
2022-07-29T18:40:29.969Z,48.47
2022-07-29T18:42:57.218Z,48.54
2022-07-29T18:45:28.736Z,49.08
2022-07-29T18:47:56.843Z,50.51
2022-07-29T18:50:28.795Z,49.71
2022-07-29T18:52:58.937Z,50.46
2022-07-29T18:55:26.377Z,50.64
2022-07-29T18:57:56.290Z,50.93
2022-07-29T19:00:24.552Z,50.91
2022-07-29T19:02:51.576Z,51.13
2022-07-29T19:05:18.786Z,51.41
2022-07-29T19:07:45.595Z,51.85
2022-07-29T19:10:13.676Z,51.76
2022-07-29T19:12:40.515Z,51.31
2022-07-29T19:15:08.154Z,51.53
2022-07-29T19:17:35.013Z,51.67
2022-07-29T19:20:02.342Z,51.89
2022-07-29T19:22:29.098Z,52.26
2022-07-29T19:24:55.855Z,52.17
2022-07-29T19:27:22.512Z,52.69
2022-07-29T19:29:49.383Z,52.56
2022-07-29T19:32:24.894Z,52.36
2022-07-29T19:35:11.224Z,53.04
2022-07-29T19:37:37.881Z,52.52
2022-07-29T19:40:06.407Z,53.42
2022-07-29T19:42:33.184Z,53.31
2022-07-29T19:45:00.164Z,53.03
2022-07-29T19:47:26.940Z,53.00
2022-07-29T19:49:53.695Z,53.33
2022-07-29T19:52:20.564Z,54.57
2022-07-29T19:54:47.459Z,55.64
2022-07-29T19:57:14.437Z,54.59
2022-07-29T19:59:41.347Z,55.64
2022-07-29T20:02:11.019Z,53.83
2022-07-29T20:04:39.029Z,55.18
2022-07-29T20:07:06.883Z,57.19
2022-07-29T20:09:33.998Z,57.88
2022-07-29T20:12:00.745Z,57.25
2022-07-29T20:14:27.637Z,57.16
2022-07-29T20:16:54.483Z,57.02
2022-07-29T20:19:21.620Z,56.94
2022-07-29T20:21:48.267Z,57.54
2022-07-29T20:24:15.027Z,59.49
2022-07-29T20:26:41.801Z,60.62
2022-07-29T20:29:09.185Z,60.23
2022-07-29T20:31:36.258Z,59.88
2022-07-29T20:34:03.157Z,58.82
2022-07-29T20:36:30.252Z,58.79
2022-07-29T20:38:57.487Z,58.80
2022-07-29T20:41:24.250Z,58.05
2022-07-29T20:43:51.127Z,61.11
2022-07-29T20:46:18.378Z,61.58
2022-07-29T20:48:45.789Z,62.88
2022-07-29T20:51:13.093Z,60.65
2022-07-29T20:53:40.926Z,62.72
2022-07-29T20:56:08.405Z,60.62
2022-07-29T20:58:36.275Z,60.74
2022-07-29T21:01:05.137Z,64.62
2022-07-29T21:03:32.638Z,62.08
2022-07-29T21:06:00.129Z,62.72
2022-07-29T21:08:26.900Z,65.66
2022-07-29T21:10:54.246Z,63.24
2022-07-29T21:13:22.448Z,62.94
2022-07-29T21:15:50.798Z,61.67
2022-07-29T21:18:27.583Z,60.71
2022-07-29T21:20:58.662Z,59.74
2022-07-29T21:23:26.512Z,61.63
2022-07-29T21:25:54.252Z,59.97
2022-07-29T21:28:26.867Z,63.67
2022-07-29T21:30:55.059Z,62.86
2022-07-29T21:33:21.892Z,67.60
2022-07-29T21:36:26.800Z,64.44
2022-07-29T21:38:36.335Z,68.15
2022-07-29T21:41:04.075Z,65.34
2022-07-29T21:43:31.289Z,66.30
2022-07-29T21:45:59.342Z,65.56
2022-07-29T21:48:28.175Z,65.12
2022-07-29T21:50:55.521Z,66.19
2022-07-29T21:53:23.009Z,69.04
2022-07-29T21:55:56.276Z,69.05
2022-07-29T21:58:24.723Z,68.19
2022-07-29T22:00:52.156Z,69.70
2022-07-29T22:03:18.916Z,67.53
2022-07-29T22:05:45.682Z,69.63
2022-07-29T22:08:13.033Z,71.00
2022-07-29T22:10:39.913Z,69.49
2022-07-29T22:13:07.412Z,68.41
2022-07-29T22:15:34.271Z,70.89
2022-07-29T22:18:01.150Z,70.24
2022-07-29T22:20:27.904Z,69.76
2022-07-29T22:22:54.903Z,69.68
2022-07-29T22:25:22.501Z,70.14
2022-07-29T22:27:49.497Z,69.58
2022-07-29T22:30:16.860Z,69.56
2022-07-29T22:32:43.619Z,68.45
2022-07-29T22:35:10.499Z,69.22
2022-07-29T22:37:37.253Z,68.95
2022-07-29T22:40:04.729Z,68.70
2022-07-29T22:42:31.495Z,69.56
2022-07-29T22:44:58.246Z,66.89
2022-07-29T22:47:38.934Z,68.52
2022-07-29T22:50:11.802Z,69.60
2022-07-29T22:52:38.681Z,67.62
2022-07-29T22:55:06.160Z,68.94
2022-07-29T22:57:32.918Z,67.60
2022-07-29T23:00:02.219Z,68.17
2022-07-29T23:02:29.222Z,70.15
2022-07-29T23:04:56.312Z,68.47
2022-07-29T23:07:23.441Z,69.51
2022-07-29T23:09:50.428Z,69.19
2022-07-29T23:12:17.681Z,68.09
2022-07-29T23:14:44.429Z,70.44
2022-07-29T23:17:12.186Z,69.82
2022-07-29T23:19:38.903Z,68.49
2022-07-29T23:22:05.543Z,69.88
2022-07-29T23:24:32.298Z,68.37
2022-07-29T23:26:59.268Z,68.63
2022-07-29T23:29:26.422Z,69.35
2022-07-29T23:31:53.174Z,70.37
2022-07-29T23:34:20.053Z,68.57
2022-07-29T23:36:46.810Z,68.60
2022-07-29T23:39:13.688Z,68.57
2022-07-29T23:41:41.055Z,69.50
2022-07-29T23:44:08.046Z,68.48
2022-07-29T23:46:34.861Z,68.79
2022-07-29T23:49:01.760Z,69.31
2022-07-29T23:51:29.329Z,70.39
2022-07-29T23:53:56.549Z,69.13
2022-07-29T23:56:23.757Z,69.00
2022-07-29T23:58:50.518Z,70.88
